Time;durP1;ratioP1;P1;durP2;ratioP2;P2;SDS_P1;SDS_P2;PMS_P1;PMS_P2;Temp;Humidity;BMP_temperature;BMP_pressure;BME280_temperature;BME280_humidity;BME280_pressure;Samples;Min_cycle;Max_cycle;Signal;HPM_P1;HPM_P2
2022/12/22 03:27:30;;;;;;;70.32;50.75;;;15.00;69.30;;;;;;4931872;28;85026;-50
2022/12/22 03:29:55;;;;;;;70.53;50.45;;;14.90;69.20;;;;;;4926695;28;86205;-49
2022/12/22 03:32:21;;;;;;;70.80;50.58;;;14.90;69.30;;;;;;4921170;28;86637;-51
2022/12/22 03:34:46;;;;;;;70.57;50.92;;;14.90;69.30;;;;;;4937613;28;85574;-49
2022/12/22 03:37:12;;;;;;;70.85;50.65;;;14.90;69.30;;;;;;4930439;28;85512;-52
2022/12/22 03:39:38;;;;;;;71.03;50.33;;;14.90;69.30;;;;;;4939121;28;85046;-52
2022/12/22 03:47:32;;;;;;;70.90;50.72;;;14.90;69.20;;;;;;4936428;28;86561;-53
2022/12/22 03:49:57;;;;;;;70.05;50.55;;;14.90;69.20;;;;;;4932332;28;85825;-51
2022/12/22 03:52:23;;;;;;;70.05;50.35;;;14.90;69.20;;;;;;4928890;28;85280;-51
2022/12/22 03:54:48;;;;;;;69.57;50.33;;;14.90;69.20;;;;;;4934123;28;85860;-51
2022/12/22 03:57:14;;;;;;;69.88;50.67;;;14.90;69.20;;;;;;4935781;28;85839;-53
2022/12/22 03:59:40;;;;;;;70.22;50.70;;;14.90;69.20;;;;;;4938542;28;86459;-50
2022/12/22 04:02:06;;;;;;;70.05;50.90;;;14.90;69.20;;;;;;4932949;28;86587;-52
2022/12/22 04:04:32;;;;;;;69.30;50.28;;;14.90;69.20;;;;;;4929758;28;86475;-50
2022/12/22 04:06:58;;;;;;;70.13;50.65;;;14.90;69.20;;;;;;4929580;28;86319;-48
2022/12/22 04:09:25;;;;;;;69.70;50.50;;;14.90;69.20;;;;;;4929944;28;86754;-51
2022/12/22 04:14:36;;;;;;;69.93;50.28;;;14.90;69.20;;;;;;4932194;28;86170;-53
2022/12/22 04:17:03;;;;;;;70.65;50.67;;;14.90;69.20;;;;;;4931892;28;86800;-54
2022/12/22 04:19:30;;;;;;;69.53;50.55;;;14.90;69.20;;;;;;4927574;28;85825;-54
2022/12/22 04:21:56;;;;;;;70.10;50.10;;;14.90;69.30;;;;;;4934973;28;85471;-52
2022/12/22 04:24:22;;;;;;;69.85;50.45;;;14.90;69.30;;;;;;4935863;28;85455;-48
2022/12/22 04:26:48;;;;;;;70.72;50.40;;;14.90;69.30;;;;;;4934543;28;86930;-52
2022/12/22 04:29:14;;;;;;;70.13;50.17;;;14.80;69.30;;;;;;4938003;28;86302;-49
2022/12/22 04:31:39;;;;;;;70.05;50.42;;;14.80;69.30;;;;;;4931110;28;86133;-52
2022/12/22 04:34:05;;;;;;;70.03;50.58;;;14.80;69.30;;;;;;4937204;28;86570;-53
2022/12/22 04:36:31;;;;;;;70.15;50.28;;;14.80;69.30;;;;;;4936539;28;85745;-53
2022/12/22 04:38:56;;;;;;;70.95;50.72;;;14.80;69.40;;;;;;4934998;28;92586;-53
2022/12/22 04:41:22;;;;;;;70.10;50.45;;;14.80;69.20;;;;;;4932906;28;86911;-48
2022/12/22 04:43:48;;;;;;;68.85;50.05;;;14.80;69.30;;;;;;4932865;28;86656;-50
2022/12/22 04:46:13;;;;;;;71.03;50.50;;;14.80;69.30;;;;;;4932865;28;85884;-52
2022/12/22 04:48:39;;;;;;;69.18;49.88;;;14.80;69.30;;;;;;4934329;28;86714;-51
2022/12/22 04:51:05;;;;;;;69.90;50.53;;;14.80;69.30;;;;;;4935541;28;85760;-53
2022/12/22 04:53:31;;;;;;;69.85;50.63;;;14.80;69.30;;;;;;4934398;28;85126;-50
2022/12/22 04:56:05;;;;;;;70.18;50.72;;;14.80;69.30;;;;;;4927893;28;86818;-52
2022/12/22 04:58:32;;;;;;;70.55;50.47;;;14.80;69.30;;;;;;4936333;28;87144;-49
2022/12/22 05:01:08;;;;;;;69.75;50.38;;;14.80;69.30;;;;;;4931541;28;86406;-48
2022/12/22 05:03:33;;;;;;;69.38;50.42;;;14.80;69.40;;;;;;4934768;28;85666;-53
2022/12/22 05:05:59;;;;;;;69.93;50.42;;;14.80;69.40;;;;;;4933304;28;86305;-49
2022/12/22 05:08:24;;;;;;;70.13;50.90;;;14.80;69.50;;;;;;4928877;28;86463;-53
2022/12/22 05:10:50;;;;;;;70.25;50.72;;;14.80;69.40;;;;;;4925468;28;85250;-52
2022/12/22 05:13:16;;;;;;;71.07;50.25;;;14.80;69.50;;;;;;4927172;28;86536;-53
2022/12/22 05:15:41;;;;;;;69.93;50.58;;;14.80;69.60;;;;;;4928249;28;85713;-52
2022/12/22 05:18:07;;;;;;;69.75;50.42;;;14.70;69.50;;;;;;4934202;28;85992;-48
2022/12/22 05:20:34;;;;;;;70.57;51.08;;;14.70;69.50;;;;;;4935541;28;85892;-51
2022/12/22 05:23:00;;;;;;;69.60;50.78;;;14.80;69.60;;;;;;4932054;28;85534;-49
2022/12/22 05:25:26;;;;;;;70.47;50.40;;;14.80;69.60;;;;;;4940687;28;85942;-53
2022/12/22 05:27:51;;;;;;;72.13;51.03;;;14.70;69.80;;;;;;4937247;28;86597;-49
2022/12/22 05:30:18;;;;;;;71.45;51.85;;;14.70;69.60;;;;;;4931848;28;91156;-53
2022/12/22 05:32:43;;;;;;;70.43;51.05;;;14.80;69.70;;;;;;4932061;28;86932;-50
2022/12/22 05:35:09;;;;;;;70.40;50.83;;;14.70;69.60;;;;;;4934227;28;85630;-52
2022/12/22 05:37:35;;;;;;;70.57;50.92;;;14.70;69.60;;;;;;4924407;28;85953;-53
2022/12/22 05:40:01;;;;;;;71.47;51.50;;;14.70;69.60;;;;;;4927651;28;87131;-49
2022/12/22 05:42:35;;;;;;;73.63;51.67;;;14.70;69.50;;;;;;4918492;28;86586;-54
2022/12/22 05:45:21;;;;;;;73.38;52.38;;;14.80;69.70;;;;;;4934562;28;85812;-49
2022/12/22 05:47:50;;;;;;;74.03;51.80;;;14.80;69.90;;;;;;4926895;28;86352;-49
2022/12/22 05:50:23;;;;;;;74.18;52.20;;;14.70;69.90;;;;;;4921915;28;90599;-53
2022/12/22 05:52:49;;;;;;;77.93;52.97;;;14.70;70.10;;;;;;4929248;28;85659;-54
2022/12/22 05:55:15;;;;;;;75.75;53.03;;;14.70;70.30;;;;;;4928141;28;86078;-52
2022/12/22 05:57:41;;;;;;;76.95;54.58;;;14.70;70.40;;;;;;4934492;28;86887;-48
2022/12/22 06:00:13;;;;;;;83.53;57.08;;;14.70;70.90;;;;;;4932017;28;85662;-49
2022/12/22 06:02:40;;;;;;;79.43;57.10;;;14.70;71.00;;;;;;4928516;28;85436;-53
2022/12/22 06:05:06;;;;;;;79.47;57.33;;;14.80;71.80;;;;;;4919117;28;86515;-51
2022/12/22 06:07:32;;;;;;;94.57;64.80;;;14.80;71.00;;;;;;4916684;28;87910;-51
2022/12/22 06:09:57;;;;;;;90.45;65.28;;;14.80;71.00;;;;;;4922282;28;87048;-54
2022/12/22 06:12:23;;;;;;;90.80;64.10;;;14.90;71.30;;;;;;4925597;28;85442;-51
2022/12/22 06:14:49;;;;;;;90.53;63.63;;;14.90;71.30;;;;;;4908530;28;91158;-51
2022/12/22 06:17:15;;;;;;;90.90;61.33;;;15.10;71.40;;;;;;4916379;28;90450;-53
2022/12/22 06:19:41;;;;;;;90.78;61.17;;;15.10;71.30;;;;;;4909539;28;86685;-53
2022/12/22 06:22:06;;;;;;;84.18;60.35;;;15.20;71.30;;;;;;4922899;28;85275;-51
2022/12/22 06:24:32;;;;;;;83.25;60.20;;;15.30;71.30;;;;;;4928600;28;90228;-51
2022/12/22 06:26:58;;;;;;;84.53;59.30;;;15.30;71.30;;;;;;4920635;28;87659;-53
2022/12/22 06:29:24;;;;;;;84.90;60.05;;;15.40;71.20;;;;;;4908301;28;85998;-55
2022/12/22 06:31:49;;;;;;;84.43;59.78;;;15.40;71.10;;;;;;4923256;28;90338;-51
2022/12/22 06:34:16;;;;;;;84.13;58.63;;;15.50;71.20;;;;;;4927023;28;87054;-51
2022/12/22 06:36:44;;;;;;;84.20;58.47;;;15.60;70.90;;;;;;4921868;28;85633;-52
2022/12/22 06:39:09;;;;;;;79.72;57.67;;;15.60;70.80;;;;;;4919120;28;87575;-52
2022/12/22 06:44:33;;;;;;;81.45;57.50;;;15.60;71.70;;;;;;4938333;28;86264;-54
2022/12/22 06:47:01;;;;;;;91.97;57.55;;;15.70;71.70;;;;;;4927678;28;91399;-55
2022/12/22 06:49:27;;;;;;;83.32;57.42;;;15.70;71.60;;;;;;4927509;28;86990;-53
2022/12/22 06:51:53;;;;;;;79.40;56.30;;;15.80;71.50;;;;;;4925762;28;85528;-55
2022/12/22 06:54:19;;;;;;;83.13;57.70;;;15.80;71.40;;;;;;4921910;28;85961;-55
2022/12/22 06:56:44;;;;;;;81.65;56.15;;;15.80;71.30;;;;;;4919986;28;87130;-54
2022/12/22 06:59:10;;;;;;;82.20;56.97;;;15.80;71.30;;;;;;4924470;28;86565;-52
2022/12/22 07:01:35;;;;;;;79.25;56.13;;;15.80;71.20;;;;;;4914785;28;85796;-52
2022/12/22 07:04:01;;;;;;;78.72;56.17;;;15.80;71.30;;;;;;4916143;28;87052;-56
2022/12/22 07:06:27;;;;;;;79.97;56.08;;;15.80;71.10;;;;;;4925062;28;85848;-54
2022/12/22 07:08:53;;;;;;;81.32;56.55;;;15.80;71.10;;;;;;4927241;28;85933;-51
2022/12/22 07:11:18;;;;;;;80.63;56.47;;;15.80;71.20;;;;;;4917966;28;86214;-55
2022/12/22 07:13:44;;;;;;;79.72;56.17;;;15.80;72.50;;;;;;4916535;28;92156;-49
2022/12/22 07:16:11;;;;;;;81.15;58.15;;;15.80;72.70;;;;;;4901301;28;95139;-51
2022/12/22 07:18:39;;;;;;;82.20;55.97;;;15.90;72.70;;;;;;4933609;28;86787;-51
2022/12/22 07:21:07;;;;;;;80.80;56.92;;;15.90;72.40;;;;;;4932071;28;85176;-50
2022/12/22 07:23:34;;;;;;;81.00;57.08;;;16.00;72.40;;;;;;4917708;28;87050;-47
2022/12/22 07:26:00;;;;;;;82.63;56.08;;;16.00;72.40;;;;;;4923060;28;88119;-48
2022/12/22 07:28:26;;;;;;;81.75;56.22;;;16.00;72.00;;;;;;4924020;28;88937;-48
2022/12/22 07:30:54;;;;;;;82.88;57.80;;;16.00;72.30;;;;;;4919773;28;87293;-50
2022/12/22 07:33:20;;;;;;;80.60;57.97;;;16.00;72.40;;;;;;4929826;28;85292;-50
2022/12/22 07:35:46;;;;;;;93.55;58.28;;;16.00;72.20;;;;;;4930208;28;91554;-51
2022/12/22 07:38:12;;;;;;;81.50;58.17;;;16.10;71.80;;;;;;4921857;28;90444;-52
2022/12/22 07:40:38;;;;;;;81.72;57.35;;;16.00;71.30;;;;;;4921380;28;86772;-49
2022/12/22 07:43:03;;;;;;;80.68;57.55;;;16.10;71.80;;;;;;4925681;28;86709;-47
2022/12/22 07:45:29;;;;;;;80.25;56.50;;;16.20;71.10;;;;;;4925401;28;87390;-52
2022/12/22 07:48:00;;;;;;;80.50;57.28;;;16.40;70.50;;;;;;4926584;28;87365;-53
2022/12/22 07:50:31;;;;;;;81.28;56.83;;;16.50;69.70;;;;;;4926417;28;89008;-51
2022/12/22 07:52:59;;;;;;;79.65;56.40;;;16.60;69.30;;;;;;4925530;28;87118;-52
2022/12/22 07:55:28;;;;;;;82.13;56.90;;;16.70;68.90;;;;;;4922874;28;88396;-53
2022/12/22 07:57:54;;;;;;;81.72;56.22;;;16.80;68.40;;;;;;4921691;28;87413;-52
2022/12/22 08:00:21;;;;;;;81.18;56.53;;;16.90;68.20;;;;;;4925568;28;87625;-52
2022/12/22 08:02:51;;;;;;;81.78;57.95;;;16.90;68.00;;;;;;4928020;28;90672;-52
2022/12/22 08:05:17;;;;;;;82.47;57.85;;;17.00;67.70;;;;;;4925657;28;86120;-54
2022/12/22 08:07:43;;;;;;;85.38;57.72;;;17.00;68.00;;;;;;4923701;28;87397;-50
2022/12/22 08:10:10;;;;;;;81.75;59.28;;;17.00;67.60;;;;;;4906738;28;88718;-50
2022/12/22 08:12:36;;;;;;;80.95;55.97;;;17.00;67.60;;;;;;4925966;28;86479;-49
2022/12/22 08:15:02;;;;;;;83.50;56.58;;;17.00;67.40;;;;;;4931594;28;88748;-50
2022/12/22 08:17:28;;;;;;;82.93;57.15;;;17.10;67.20;;;;;;4922253;28;86123;-47
2022/12/22 08:19:54;;;;;;;80.60;56.30;;;17.10;66.90;;;;;;4924185;28;87209;-51
2022/12/22 08:22:24;;;;;;;81.68;55.80;;;17.20;67.00;;;;;;4933238;28;85374;-50
2022/12/22 08:24:50;;;;;;;78.40;55.47;;;17.20;66.60;;;;;;4922727;28;86637;-52
2022/12/22 08:27:20;;;;;;;85.13;55.50;;;17.30;66.40;;;;;;4932888;28;86271;-52
2022/12/22 08:29:50;;;;;;;80.22;54.72;;;17.30;66.20;;;;;;4935821;28;85887;-50
2022/12/22 08:32:16;;;;;;;79.43;55.35;;;17.40;66.00;;;;;;4933954;28;85455;-51
2022/12/22 08:34:42;;;;;;;80.07;54.85;;;17.40;65.80;;;;;;4926341;28;87790;-48
2022/12/22 08:37:12;;;;;;;77.88;54.25;;;17.40;65.90;;;;;;4929346;28;85702;-51
2022/12/22 08:39:41;;;;;;;80.37;54.83;;;17.40;65.70;;;;;;4930875;28;86163;-48
2022/12/22 08:42:09;;;;;;;78.38;54.13;;;17.50;65.70;;;;;;4930742;28;87175;-50
2022/12/22 08:44:39;;;;;;;79.15;54.70;;;17.50;65.50;;;;;;4927851;28;89556;-53
2022/12/22 08:47:05;;;;;;;78.30;54.25;;;17.50;65.40;;;;;;4928373;28;85999;-50
2022/12/22 08:49:31;;;;;;;82.05;54.30;;;17.50;65.30;;;;;;4908528;28;86315;-54
2022/12/22 08:51:57;;;;;;;78.63;54.15;;;17.50;65.10;;;;;;4885990;28;87117;-52
2022/12/22 08:54:23;;;;;;;79.57;54.47;;;17.50;65.30;;;;;;4895676;28;85106;-55
2022/12/22 08:56:49;;;;;;;77.88;54.45;;;17.50;65.10;;;;;;4895533;28;87902;-51
2022/12/22 08:59:16;;;;;;;78.57;54.28;;;17.60;65.00;;;;;;4908610;28;85996;-53
2022/12/22 09:01:43;;;;;;;78.40;53.78;;;17.60;64.80;;;;;;4933041;28;85913;-50
2022/12/22 09:04:13;;;;;;;78.13;53.38;;;17.60;64.90;;;;;;4929410;28;85656;-50
2022/12/22 09:06:39;;;;;;;78.13;53.83;;;17.60;64.60;;;;;;4931155;28;90951;-52
2022/12/22 09:09:08;;;;;;;78.10;54.17;;;17.60;64.50;;;;;;4929191;28;88161;-52
2022/12/22 09:11:34;;;;;;;80.88;56.15;;;17.60;64.60;;;;;;4912820;28;85960;-54
2022/12/22 09:14:01;;;;;;;79.55;56.17;;;17.60;64.60;;;;;;4911942;28;88356;-56
2022/12/22 09:16:29;;;;;;;81.72;56.30;;;17.60;64.40;;;;;;4887136;28;87878;-51
2022/12/22 09:18:55;;;;;;;78.63;54.92;;;17.70;64.60;;;;;;4898260;28;88963;-51
2022/12/22 09:21:22;;;;;;;80.30;54.67;;;17.70;64.50;;;;;;4885960;28;92282;-53
2022/12/22 09:23:48;;;;;;;80.25;54.95;;;17.70;64.40;;;;;;4884166;28;89796;-53
2022/12/22 09:26:16;;;;;;;80.80;54.88;;;17.70;64.30;;;;;;4887396;28;92714;-52
2022/12/22 09:28:42;;;;;;;79.40;54.70;;;17.80;64.30;;;;;;4897568;28;92119;-55
2022/12/22 09:31:09;;;;;;;80.05;54.58;;;17.90;64.30;;;;;;4890023;28;94813;-53
2022/12/22 09:33:35;;;;;;;81.57;55.63;;;18.00;64.00;;;;;;4897525;28;93619;-51
2022/12/22 09:36:09;;;;;;;80.25;54.72;;;18.10;63.70;;;;;;4905140;28;92221;-50
2022/12/22 09:38:36;;;;;;;79.60;54.53;;;18.20;63.40;;;;;;4897805;28;92137;-58
2022/12/22 09:41:17;;;;;;;81.07;54.30;;;18.20;63.20;;;;;;4895466;28;92991;-57
2022/12/22 09:43:43;;;;;;;81.10;55.05;;;18.20;62.90;;;;;;4892705;28;90218;-54
2022/12/22 09:46:24;;;;;;;78.32;54.45;;;18.30;62.70;;;;;;4901402;28;89653;-52
2022/12/22 09:48:52;;;;;;;82.57;54.88;;;18.30;62.70;;;;;;4893179;28;90268;-54
2022/12/22 09:51:18;;;;;;;81.93;54.42;;;18.30;63.20;;;;;;4904139;28;90190;-52
2022/12/22 09:53:47;;;;;;;81.35;54.10;;;18.40;63.10;;;;;;4898551;28;94430;-57
2022/12/22 09:56:15;;;;;;;80.70;54.50;;;18.40;63.80;;;;;;4899309;28;92300;-59
2022/12/22 09:58:41;;;;;;;85.50;53.92;;;18.40;63.10;;;;;;4913171;28;90040;-54
2022/12/22 10:01:32;;;;;;;85.25;54.65;;;18.40;62.90;;;;;;4925203;28;93819;-54
2022/12/22 10:04:09;;;;;;;84.13;53.27;;;18.40;63.00;;;;;;4932444;28;91789;-56
2022/12/22 10:07:09;;;;;;;81.45;53.38;;;18.40;62.90;;;;;;4926789;28;90489;-55
2022/12/22 10:09:36;;;;;;;82.77;53.40;;;18.50;62.90;;;;;;4937169;28;89942;-58
2022/12/22 10:12:04;;;;;;;79.57;53.30;;;18.30;62.80;;;;;;4919316;28;91104;-55
2022/12/22 10:14:38;;;;;;;82.93;53.33;;;18.40;62.90;;;;;;4920398;28;90308;-57
2022/12/22 10:17:34;;;;;;;80.38;53.40;;;18.40;62.60;;;;;;4924045;28;91430;-58
2022/12/22 10:20:20;;;;;;;81.78;53.63;;;18.50;62.50;;;;;;4925654;28;93655;-56
2022/12/22 10:22:49;;;;;;;79.93;53.35;;;18.50;62.30;;;;;;4921679;28;91278;-56
2022/12/22 10:25:27;;;;;;;83.22;53.08;;;18.60;62.30;;;;;;4924759;28;91004;-55
2022/12/22 10:27:55;;;;;;;80.95;53.17;;;18.60;62.10;;;;;;4919653;28;91864;-57
2022/12/22 10:30:24;;;;;;;80.20;53.05;;;18.60;61.90;;;;;;4913537;28;91796;-55
2022/12/22 10:33:19;;;;;;;83.95;53.70;;;18.60;61.90;;;;;;4919803;28;90747;-56
2022/12/22 10:35:53;;;;;;;81.15;54.03;;;18.40;62.30;;;;;;4915726;28;90073;-56
2022/12/22 10:38:25;;;;;;;82.88;53.95;;;18.40;62.60;;;;;;4914909;28;92097;-55
2022/12/22 10:40:55;;;;;;;83.38;53.58;;;18.40;62.40;;;;;;4922161;28;90256;-54
2022/12/22 10:43:28;;;;;;;81.22;53.72;;;18.50;62.10;;;;;;4918348;28;92181;-58
2022/12/22 10:45:56;;;;;;;84.18;53.85;;;18.50;62.20;;;;;;4922909;28;90061;-54
2022/12/22 10:48:28;;;;;;;86.82;54.40;;;18.60;62.30;;;;;;4909510;28;92694;-55
2022/12/22 10:50:56;;;;;;;88.70;53.50;;;18.70;62.40;;;;;;4928872;28;92644;-56
2022/12/22 10:53:39;;;;;;;88.30;53.40;;;18.70;62.50;;;;;;4929611;28;90113;-57
2022/12/22 10:56:06;;;;;;;86.40;53.85;;;18.70;62.50;;;;;;4923531;28;90340;-59
2022/12/22 10:58:54;;;;;;;83.30;53.60;;;18.70;62.80;;;;;;4913399;28;91667;-50
2022/12/22 11:01:28;;;;;;;83.78;53.42;;;18.70;63.20;;;;;;4914297;28;90744;-59
2022/12/22 11:03:54;;;;;;;82.63;53.38;;;18.80;63.30;;;;;;4920723;28;89967;-58
2022/12/22 11:06:20;;;;;;;84.13;53.35;;;18.60;63.50;;;;;;4923836;28;90345;-60
2022/12/22 11:08:46;;;;;;;82.28;52.92;;;18.30;64.20;;;;;;4918315;28;90670;-59
2022/12/22 11:11:36;;;;;;;81.25;53.22;;;18.10;64.40;;;;;;4916821;28;91505;-59
2022/12/22 11:14:13;;;;;;;82.25;53.13;;;17.90;64.70;;;;;;4914821;28;92298;-58
2022/12/22 11:16:54;;;;;;;80.18;53.10;;;17.80;65.10;;;;;;4914621;28;95072;-58
2022/12/22 11:19:41;;;;;;;78.20;52.92;;;17.60;64.60;;;;;;4920513;28;90219;-57
2022/12/22 11:22:13;;;;;;;78.25;52.90;;;17.40;65.00;;;;;;4917118;28;90082;-58
2022/12/22 11:25:06;;;;;;;77.65;53.22;;;17.40;65.60;;;;;;4915146;28;93695;-58
2022/12/22 11:27:40;;;;;;;80.18;52.80;;;17.30;65.60;;;;;;4918556;28;94533;-58
2022/12/22 11:30:08;;;;;;;78.38;52.95;;;17.30;65.30;;;;;;4918611;28;90059;-58
2022/12/22 11:33:05;;;;;;;78.03;52.92;;;17.20;65.50;;;;;;4921616;28;89247;-59
2022/12/22 11:35:52;;;;;;;80.28;53.03;;;17.30;65.90;;;;;;4919887;28;90300;-58
2022/12/22 11:38:49;;;;;;;80.00;52.45;;;17.20;66.40;;;;;;4916717;28;90082;-58
2022/12/22 11:41:34;;;;;;;76.93;52.65;;;17.20;66.80;;;;;;4911717;28;93749;-59
2022/12/22 11:44:18;;;;;;;76.00;51.83;;;17.20;66.70;;;;;;4917682;28;90600;-58
2022/12/22 11:47:02;;;;;;;76.53;52.10;;;17.10;66.50;;;;;;4924292;28;89979;-59
2022/12/22 11:50:24;;;;;;;78.57;52.28;;;17.10;66.80;;;;;;4934712;28;90617;-58
2022/12/22 11:53:28;;;;;;;76.32;52.30;;;17.20;67.10;;;;;;4930824;28;91204;-59
2022/12/22 11:56:20;;;;;;;75.60;52.05;;;17.20;66.70;;;;;;4936925;28;89935;-59
2022/12/22 11:58:49;;;;;;;78.85;53.15;;;17.10;66.70;;;;;;4919269;28;92589;-58
2022/12/22 12:01:23;;;;;;;77.63;53.55;;;17.10;67.00;;;;;;4928739;28;89642;-58
2022/12/22 12:04:09;;;;;;;77.25;53.33;;;17.20;67.10;;;;;;4927361;28;89781;-57
2022/12/22 12:06:43;;;;;;;77.88;52.92;;;17.20;67.30;;;;;;4937892;28;90281;-52
2022/12/22 12:09:33;;;;;;;79.07;52.88;;;17.20;67.40;;;;;;4924992;28;90859;-59
2022/12/22 12:12:29;;;;;;;78.25;52.20;;;17.20;67.50;;;;;;4915230;28;92577;-59
2022/12/22 12:14:58;;;;;;;78.32;52.45;;;17.10;67.80;;;;;;4922145;28;93414;-60
2022/12/22 12:17:51;;;;;;;78.38;52.88;;;17.10;68.00;;;;;;4932063;28;94290;-58
2022/12/22 12:20:27;;;;;;;79.40;52.78;;;17.10;68.10;;;;;;4917494;28;91935;-58
2022/12/22 12:23:24;;;;;;;76.75;52.45;;;17.20;67.70;;;;;;4919117;28;90742;-58
2022/12/22 12:26:23;;;;;;;78.18;52.53;;;17.20;67.40;;;;;;4914294;28;90811;-61
2022/12/22 12:29:24;;;;;;;79.43;52.95;;;17.10;67.60;;;;;;4922888;28;90850;-53
2022/12/22 12:31:53;;;;;;;78.43;52.38;;;17.10;68.00;;;;;;4922121;28;90209;-53
2022/12/22 12:34:20;;;;;;;76.15;52.70;;;17.10;68.10;;;;;;4918486;28;90214;-54
2022/12/22 12:37:09;;;;;;;77.03;53.25;;;17.10;67.50;;;;;;4913321;28;92287;-54
2022/12/22 12:39:58;;;;;;;76.47;52.42;;;17.20;67.20;;;;;;4927699;28;89823;-56
2022/12/22 12:42:40;;;;;;;83.30;52.42;;;17.20;67.40;;;;;;4920104;28;90788;-59
2022/12/22 12:45:30;;;;;;;76.45;52.10;;;17.20;67.70;;;;;;4934069;28;90362;-47
2022/12/22 12:48:19;;;;;;;75.28;52.38;;;17.30;67.60;;;;;;4919097;28;93069;-53
2022/12/22 12:50:49;;;;;;;76.07;52.40;;;17.60;67.00;;;;;;4919868;28;91502;-52
2022/12/22 12:53:19;;;;;;;76.35;52.38;;;17.80;66.30;;;;;;4926600;28;91093;-57
2022/12/22 12:55:51;;;;;;;78.88;52.28;;;18.00;65.30;;;;;;4918809;28;89905;-57
2022/12/22 12:58:36;;;;;;;77.82;52.33;;;18.00;64.60;;;;;;4920235;28;90441;-54
2022/12/22 13:01:31;;;;;;;79.93;52.30;;;18.10;64.70;;;;;;4918316;28;92212;-58
2022/12/22 13:03:57;;;;;;;75.07;52.10;;;18.20;65.00;;;;;;4907515;28;95094;-58
2022/12/22 13:06:44;;;;;;;80.07;52.60;;;18.10;64.30;;;;;;4927048;28;91130;-51
2022/12/22 13:09:21;;;;;;;78.75;52.58;;;18.20;65.00;;;;;;4927488;28;93437;-57
2022/12/22 13:11:49;;;;;;;76.68;52.10;;;18.20;64.90;;;;;;4934787;28;89798;-48
2022/12/22 13:14:53;;;;;;;79.85;52.22;;;18.20;64.90;;;;;;4922598;28;91716;-52
2022/12/22 13:17:38;;;;;;;78.82;52.38;;;18.20;64.70;;;;;;4919173;28;89806;-53
2022/12/22 13:20:10;;;;;;;76.65;52.33;;;18.30;64.70;;;;;;4921035;28;90046;-56
2022/12/22 13:22:36;;;;;;;78.05;52.40;;;18.30;64.70;;;;;;4921587;28;90060;-52
2022/12/22 13:25:02;;;;;;;79.95;52.28;;;18.20;64.70;;;;;;4913939;28;92173;-52
2022/12/22 13:27:29;;;;;;;83.10;52.65;;;18.20;64.60;;;;;;4916565;28;92573;-55
2022/12/22 13:29:55;;;;;;;75.65;52.08;;;18.20;64.60;;;;;;4925402;28;93492;-53
2022/12/22 13:32:28;;;;;;;76.15;52.22;;;18.20;64.60;;;;;;4913665;28;90796;-57
2022/12/22 13:35:24;;;;;;;79.18;52.33;;;18.20;64.60;;;;;;4913754;28;90362;-58
2022/12/22 13:37:52;;;;;;;78.40;52.45;;;18.20;64.30;;;;;;4925692;28;91306;-58
2022/12/22 13:40:21;;;;;;;80.35;52.42;;;18.20;64.10;;;;;;4927428;28;91149;-55
2022/12/22 13:42:48;;;;;;;76.90;52.50;;;18.30;64.20;;;;;;4924153;28;91648;-54
2022/12/22 13:45:28;;;;;;;79.45;52.47;;;18.30;64.00;;;;;;4929854;28;90878;-51
2022/12/22 13:47:54;;;;;;;79.35;51.95;;;18.40;64.00;;;;;;4917400;28;89489;-53
2022/12/22 13:50:44;;;;;;;78.57;52.78;;;18.50;64.00;;;;;;4912571;28;92043;-56
2022/12/22 13:53:16;;;;;;;76.68;52.50;;;18.40;63.50;;;;;;4926209;28;90403;-55
2022/12/22 13:55:46;;;;;;;77.13;52.42;;;18.30;63.50;;;;;;4922733;28;92587;-53
2022/12/22 13:58:28;;;;;;;79.63;52.70;;;18.40;63.20;;;;;;4929562;28;90272;-53
2022/12/22 14:01:09;;;;;;;80.28;52.30;;;18.30;63.20;;;;;;4923801;28;90085;-54
2022/12/22 14:03:36;;;;;;;80.70;52.55;;;18.30;63.20;;;;;;4922224;28;90356;-52
2022/12/22 14:06:01;;;;;;;78.15;51.83;;;18.20;63.20;;;;;;4919950;28;92017;-51
2022/12/22 14:08:27;;;;;;;80.90;52.75;;;18.20;63.20;;;;;;4932239;28;89984;-55
2022/12/22 14:10:54;;;;;;;79.97;52.50;;;18.30;63.10;;;;;;4925483;28;89903;-55
2022/12/22 14:13:26;;;;;;;83.00;53.08;;;18.30;63.00;;;;;;4922664;28;89088;-53
2022/12/22 14:16:04;;;;;;;81.00;52.22;;;18.30;63.00;;;;;;4921253;28;90684;-54
2022/12/22 14:18:31;;;;;;;81.60;52.67;;;18.20;63.10;;;;;;4918901;28;91233;-54
2022/12/22 14:20:58;;;;;;;83.32;52.35;;;18.20;63.10;;;;;;4918429;28;93713;-52
2022/12/22 14:23:32;;;;;;;78.03;52.67;;;18.20;63.10;;;;;;4927714;28;89922;-53
2022/12/22 14:25:58;;;;;;;82.03;52.45;;;18.20;63.10;;;;;;4924767;28;92182;-54
2022/12/22 14:28:30;;;;;;;86.68;52.83;;;18.20;63.20;;;;;;4926150;28;90153;-53
2022/12/22 14:31:02;;;;;;;77.25;52.15;;;18.20;63.20;;;;;;4926795;28;90786;-52
2022/12/22 14:33:31;;;;;;;79.93;52.88;;;18.20;63.30;;;;;;4921892;28;91269;-54
2022/12/22 14:36:17;;;;;;;81.60;52.92;;;18.20;63.30;;;;;;4926728;28;90420;-51
2022/12/22 14:38:49;;;;;;;81.97;52.85;;;18.20;63.30;;;;;;4929817;28;89747;-53
2022/12/22 14:41:40;;;;;;;85.10;53.08;;;18.10;63.40;;;;;;4907123;28;91835;-58
2022/12/22 14:44:23;;;;;;;;;;;18.20;64.20;;;;;;4917893;28;89935;-57
2022/12/22 14:47:14;;;;;;;81.38;53.30;;;18.20;64.60;;;;;;4918029;28;91314;-57
2022/12/22 14:50:12;;;;;;;80.70;53.58;;;18.30;64.70;;;;;;4922815;28;89644;-54
2022/12/22 14:52:51;;;;;;;83.68;53.30;;;18.30;64.70;;;;;;4920461;28;90268;-56
2022/12/22 14:55:28;;;;;;;80.30;52.95;;;18.40;64.80;;;;;;4920828;28;92157;-53
2022/12/22 14:58:02;;;;;;;84.40;53.70;;;18.40;64.70;;;;;;4924489;28;89879;-58
2022/12/22 15:00:38;;;;;;;85.30;53.85;;;18.40;64.60;;;;;;4908263;28;95448;-57
2022/12/22 15:03:24;;;;;;;83.93;53.30;;;18.30;64.80;;;;;;4921980;28;89950;-53
2022/12/22 15:05:50;;;;;;;92.90;53.92;;;18.30;64.70;;;;;;4919623;28;89544;-55
2022/12/22 15:09:05;;;;;;;83.07;53.38;;;18.40;64.60;;;;;;4917270;28;91051;-57
2022/12/22 15:11:32;;;;;;;84.93;53.97;;;18.40;64.30;;;;;;4900129;28;91750;-55
2022/12/22 15:13:59;;;;;;;86.22;53.50;;;18.30;64.00;;;;;;4913850;28;92287;-58
2022/12/22 15:16:25;;;;;;;83.10;53.33;;;18.30;63.90;;;;;;4910805;28;92632;-56
2022/12/22 15:18:51;;;;;;;82.03;53.25;;;18.20;64.10;;;;;;4918853;28;91495;-56
2022/12/22 15:21:18;;;;;;;83.32;53.42;;;18.20;64.20;;;;;;4912202;28;90596;-58
2022/12/22 15:23:44;;;;;;;81.25;53.20;;;18.30;65.40;;;;;;4924175;28;90271;-58
2022/12/22 15:26:10;;;;;;;80.90;52.72;;;18.30;64.80;;;;;;4917105;28;89874;-54
2022/12/22 15:28:36;;;;;;;82.70;53.25;;;18.30;64.80;;;;;;4917462;28;91097;-56
2022/12/22 15:31:05;;;;;;;80.70;53.33;;;18.20;64.70;;;;;;4919430;28;93155;-56
2022/12/22 15:33:30;;;;;;;82.40;53.33;;;18.20;64.90;;;;;;4929650;28;89950;-54
2022/12/22 15:35:56;;;;;;;88.78;53.40;;;18.10;65.00;;;;;;4923155;28;91343;-54
2022/12/22 15:38:23;;;;;;;84.43;53.58;;;18.10;65.00;;;;;;4915845;28;93118;-54
2022/12/22 15:40:49;;;;;;;84.38;53.38;;;18.20;65.30;;;;;;4919017;28;96734;-52
2022/12/22 15:43:15;;;;;;;85.80;53.88;;;18.10;65.20;;;;;;4917397;28;89869;-53
2022/12/22 15:45:42;;;;;;;85.25;53.30;;;18.10;65.20;;;;;;4917927;28;90626;-54
2022/12/22 15:48:13;;;;;;;83.65;53.95;;;18.10;65.20;;;;;;4913318;28;91863;-53
2022/12/22 15:50:42;;;;;;;93.15;57.60;;;18.10;65.20;;;;;;4919617;28;89937;-54
2022/12/22 15:53:14;;;;;;;90.88;56.67;;;18.10;65.60;;;;;;4921664;28;91690;-54
2022/12/22 15:55:43;;;;;;;113.07;64.00;;;18.10;65.70;;;;;;4916183;28;89368;-50
2022/12/22 15:58:24;;;;;;;112.38;60.83;;;18.00;65.90;;;;;;4921160;28;93228;-51
2022/12/22 16:00:50;;;;;;;95.82;59.17;;;18.00;66.10;;;;;;4919999;28;90115;-51
2022/12/22 16:03:16;;;;;;;96.40;57.50;;;17.80;67.10;;;;;;4925029;28;96585;-55
2022/12/22 16:05:44;;;;;;;108.55;58.13;;;17.80;67.70;;;;;;4923337;28;90637;-53
2022/12/22 16:08:28;;;;;;;109.78;57.83;;;17.80;67.80;;;;;;4921777;28;98033;-53
2022/12/22 16:10:54;;;;;;;94.40;56.75;;;17.80;68.60;;;;;;4920693;28;90412;-54
2022/12/22 16:13:25;;;;;;;94.80;57.08;;;17.80;68.10;;;;;;4916592;28;90985;-51
2022/12/22 16:15:51;;;;;;;93.07;55.90;;;17.80;68.30;;;;;;4921594;28;91478;-54
2022/12/22 16:18:17;;;;;;;98.50;56.47;;;17.70;67.80;;;;;;4925859;28;89662;-54
2022/12/22 16:20:43;;;;;;;96.65;56.60;;;17.70;67.70;;;;;;4919718;28;94557;-53
2022/12/22 16:23:15;;;;;;;93.65;56.50;;;17.70;68.10;;;;;;4911725;28;91566;-54
2022/12/22 16:25:43;;;;;;;92.28;56.05;;;17.70;68.10;;;;;;4915219;28;90014;-52
2022/12/22 16:28:15;;;;;;;92.70;55.95;;;17.70;67.80;;;;;;4919276;28;92176;-54